Time;durP1;ratioP1;P1;durP2;ratioP2;P2;SDS_P1;SDS_P2;PMS_P1;PMS_P2;Temp;Humidity;BMP_temperature;BMP_pressure;BME280_temperature;BME280_humidity;BME280_pressure;Samples;Min_cycle;Max_cycle;Signal;HPM_P1;HPM_P2
2023/06/26 00:00:11;;;;;;;6.83;6.17;;;;;;;12.29;96.33;97803.56;6182874;28;20708;-38
2023/06/26 00:03:14;;;;;;;5.93;5.30;;;;;;;12.75;96.65;97876.22;6178352;28;20221;-38
2023/06/26 00:06:17;;;;;;;14.23;6.77;;;;;;;12.82;96.61;97890.19;6175898;28;20217;-38
2023/06/26 00:09:19;;;;;;;6.97;6.27;;;;;;;12.79;96.54;97889.88;6177341;28;20640;-38
2023/06/26 00:12:21;;;;;;;8.10;6.47;;;;;;;12.76;96.88;97890.38;6182703;28;20240;-38
2023/06/26 00:15:24;;;;;;;6.73;6.10;;;;;;;12.69;97.15;97893.25;6202457;28;20228;-38
2023/06/26 00:18:26;;;;;;;7.87;6.10;;;;;;;12.62;97.43;97900.66;6205351;28;20228;-38
2023/06/26 00:21:28;;;;;;;7.77;6.40;;;;;;;12.57;97.80;97900.59;6206225;28;20224;-38
2023/06/26 00:24:30;;;;;;;7.27;6.47;;;;;;;12.55;98.03;97898.16;6205886;28;20733;-37
2023/06/26 00:27:33;;;;;;;7.93;6.30;;;;;;;12.53;98.38;97902.16;6207859;28;20247;-38
2023/06/26 00:30:35;;;;;;;8.87;6.83;;;;;;;12.54;98.31;97896.56;6189478;28;20243;-38
2023/06/26 00:33:37;;;;;;;9.27;6.37;;;;;;;12.45;98.22;97883.88;6206568;28;20319;-38
2023/06/26 00:36:43;;;;;;;6.37;5.77;;;;;;;12.60;98.01;97900.09;6206204;28;20363;-38
2023/06/26 00:39:45;;;;;;;9.30;5.60;;;;;;;12.63;97.74;97894.25;6188663;28;20236;-38
2023/06/26 00:42:47;;;;;;;6.57;5.73;;;;;;;12.46;98.04;97864.09;6206569;28;20236;-38
2023/06/26 00:45:50;;;;;;;7.03;5.87;;;;;;;12.64;97.78;97896.66;6205710;28;20256;-38
2023/06/26 00:48:55;;;;;;;6.43;5.73;;;;;;;12.68;97.83;97897.00;6188481;28;20224;-38
2023/06/26 00:51:57;;;;;;;6.83;5.90;;;;;;;12.71;97.81;97893.00;6216620;28;20239;-39
2023/06/26 00:55:00;;;;;;;6.83;5.87;;;;;;;12.65;97.37;97895.59;6188879;28;20291;-38
2023/06/26 00:58:02;;;;;;;9.00;6.70;;;;;;;12.56;97.56;97894.47;6222399;28;20237;-38
2023/06/26 01:01:08;;;;;;;9.43;6.60;;;;;;;12.45;97.75;97879.34;6205131;28;20234;-38
2023/06/26 01:04:17;;;;;;;8.87;6.47;;;;;;;12.41;98.21;97878.22;6201272;28;20308;-38
2023/06/26 01:07:21;;;;;;;8.40;6.77;;;;;;;12.32;98.59;97869.84;6206246;28;20247;-38
2023/06/26 01:10:27;;;;;;;8.50;6.43;;;;;;;12.35;98.36;97881.88;6205414;28;20239;-38
2023/06/26 01:13:31;;;;;;;8.20;6.57;;;;;;;12.36;98.51;97876.31;6204642;28;20249;-38
2023/06/26 01:16:35;;;;;;;6.87;6.10;;;;;;;12.39;98.51;97873.13;6203662;28;20239;-38
2023/06/26 01:19:38;;;;;;;6.80;6.10;;;;;;;12.45;98.45;97868.66;6205268;28;20710;-38
2023/06/26 01:22:48;;;;;;;7.33;6.10;;;;;;;12.46;98.23;97872.13;6187249;28;20264;-38
2023/06/26 01:26:09;;;;;;;7.17;6.13;;;;;;;12.41;98.00;97870.19;6205061;28;20275;-38
2023/06/26 01:29:14;;;;;;;9.00;6.70;;;;;;;12.24;98.07;97851.56;6197925;28;20632;-38
2023/06/26 01:32:18;;;;;;;7.87;6.03;;;;;;;12.36;97.96;97870.13;6204902;28;20232;-38
2023/06/26 01:35:21;;;;;;;7.27;6.57;;;;;;;12.31;98.13;97865.53;6204992;28;20235;-38
2023/06/26 01:38:23;;;;;;;7.63;5.60;;;;;;;12.28;97.87;97871.38;6205244;28;20256;-38
2023/06/26 01:41:25;;;;;;;8.83;6.17;;;;;;;12.18;98.44;97849.91;6204182;28;20375;-38
2023/06/26 01:44:36;;;;;;;6.47;5.87;;;;;;;12.31;98.22;97870.06;6204606;28;20291;-38
2023/06/26 01:47:46;;;;;;;6.50;5.80;;;;;;;12.30;98.47;97865.78;6202689;28;20706;-40
2023/06/26 01:50:52;;;;;;;6.37;5.70;;;;;;;12.29;98.50;97858.84;6204125;28;20232;-39
2023/06/26 01:53:57;;;;;;;6.57;5.77;;;;;;;12.13;98.42;97831.94;6205532;28;20323;-39
2023/06/26 01:57:00;;;;;;;6.40;5.67;;;;;;;12.29;98.39;97858.84;6195779;28;20228;-38
2023/06/26 02:00:03;;;;;;;7.70;5.70;;;;;;;12.27;97.99;97856.44;6187417;28;20668;-38
2023/06/26 02:03:14;;;;;;;6.13;5.53;;;;;;;12.22;97.96;97851.03;6204151;28;20216;-38
2023/06/26 02:06:16;;;;;;;5.50;4.73;;;;;;;12.18;98.07;97847.22;6195121;28;20212;-38
2023/06/26 02:09:19;;;;;;;6.00;5.40;;;;;;;12.15;98.31;97850.38;6204448;28;20216;-38
2023/06/26 02:12:21;;;;;;;6.90;5.27;;;;;;;12.17;98.60;97852.78;6185658;28;20236;-38
2023/06/26 02:15:23;;;;;;;9.80;5.43;;;;;;;12.13;98.35;97839.16;6162888;28;20233;-38
2023/06/26 02:18:26;;;;;;;6.90;6.20;;;;;;;12.06;98.92;97849.19;6160814;28;20221;-38
2023/06/26 02:21:28;;;;;;;7.47;5.13;;;;;;;12.01;99.00;97847.25;6179894;28;21150;-39
2023/06/26 02:24:30;;;;;;;8.33;5.67;;;;;;;11.91;99.96;97835.63;6180008;28;20241;-39
2023/06/26 02:27:32;;;;;;;5.87;5.27;;;;;;;11.88;100.00;97840.41;6178811;28;20224;-38
2023/06/26 02:30:34;;;;;;;7.27;5.53;;;;;;;11.85;100.00;97848.91;6180299;28;20224;-38
2023/06/26 02:33:37;;;;;;;7.20;5.40;;;;;;;11.76;100.00;97838.88;6161944;28;20241;-38
2023/06/26 02:36:39;;;;;;;9.43;5.63;;;;;;;11.83;100.00;97848.38;6179043;28;20225;-38
2023/06/26 02:39:42;;;;;;;5.87;5.27;;;;;;;11.85;100.00;97856.13;6177572;28;20236;-38
2023/06/26 02:42:45;;;;;;;8.27;5.30;;;;;;;11.87;100.00;97854.00;6179982;28;20225;-38
2023/06/26 02:45:47;;;;;;;6.70;5.40;;;;;;;11.90;100.00;97850.03;6179104;28;20295;-38
2023/06/26 02:48:49;;;;;;;8.27;5.97;;;;;;;11.94;100.00;97845.84;6178112;28;20229;-39
2023/06/26 02:51:51;;;;;;;5.80;5.30;;;;;;;12.00;100.00;97850.19;6171788;28;20237;-38
2023/06/26 02:54:59;;;;;;;6.27;5.67;;;;;;;12.01;100.00;97857.94;6177755;28;20879;-38
2023/06/26 02:58:01;;;;;;;5.07;4.57;;;;;;;12.00;100.00;97850.97;6162563;28;20316;-39
2023/06/26 03:01:03;;;;;;;5.80;5.20;;;;;;;11.84;100.00;97819.81;6160860;28;20256;-39
2023/06/26 03:04:05;;;;;;;5.30;4.53;;;;;;;12.01;100.00;97863.28;6178640;28;20327;-39
2023/06/26 03:07:08;;;;;;;5.80;5.03;;;;;;;11.89;100.00;97851.91;6178577;28;20239;-38
2023/06/26 03:10:11;;;;;;;4.80;4.10;;;;;;;11.94;99.96;97859.97;6161195;28;20237;-39
2023/06/26 03:13:13;;;;;;;7.57;4.43;;;;;;;11.92;100.00;97862.09;6192061;28;20236;-39
2023/06/26 03:16:16;;;;;;;5.10;4.60;;;;;;;11.94;100.00;97868.00;6216141;28;20660;-38
2023/06/26 03:19:18;;;;;;;8.33;4.67;;;;;;;11.93;100.00;97863.72;6185432;28;20232;-39
2023/06/26 03:22:51;;;;;;;5.07;4.47;;;;;;;11.92;100.00;97854.09;6187432;28;20224;-39
2023/06/26 03:25:55;;;;;;;5.83;4.60;;;;;;;11.91;100.00;97865.00;6181041;28;20254;-39
2023/06/26 03:29:03;;;;;;;5.70;4.50;;;;;;;11.80;99.93;97850.69;6218255;28;20327;-39
2023/06/26 03:32:06;;;;;;;6.53;5.13;;;;;;;11.88;99.84;97868.97;6203999;28;20235;-39
2023/06/26 03:35:09;;;;;;;7.83;5.30;;;;;;;11.90;100.00;97866.06;6184676;28;20237;-39
2023/06/26 03:38:11;;;;;;;5.73;4.77;;;;;;;11.90;100.00;97866.88;6199665;28;20343;-39
2023/06/26 03:41:15;;;;;;;8.03;5.20;;;;;;;11.89;100.00;97865.25;6202477;28;20232;-39
2023/06/26 03:44:17;;;;;;;5.77;4.87;;;;;;;11.88;100.00;97866.31;6185051;28;20363;-39
2023/06/26 03:47:22;;;;;;;5.13;4.63;;;;;;;11.92;99.97;97872.78;6185778;28;20229;-39
2023/06/26 03:50:24;;;;;;;8.33;5.87;;;;;;;11.97;100.00;97880.03;6203175;28;20235;-39
2023/06/26 03:53:26;;;;;;;6.10;4.70;;;;;;;11.95;100.00;97880.28;6207665;28;20237;-39
2023/06/26 03:56:28;;;;;;;7.90;5.40;;;;;;;11.93;100.00;97879.72;6198996;28;20619;-39
2023/06/26 03:59:31;;;;;;;8.57;6.43;;;;;;;11.90;100.00;97877.53;6202702;28;20311;-40
2023/06/26 04:02:33;;;;;;;5.97;5.37;;;;;;;11.92;100.00;97878.13;6206800;28;20713;-39
2023/06/26 04:05:35;;;;;;;7.33;5.67;;;;;;;11.94;100.00;97876.00;6206708;28;20236;-44
2023/06/26 04:08:38;;;;;;;7.53;5.93;;;;;;;11.82;100.00;97862.75;6189324;28;20835;-39
2023/06/26 04:11:40;;;;;;;7.03;5.50;;;;;;;11.97;100.00;97882.69;6222220;28;20323;-41
2023/06/26 04:14:42;;;;;;;6.87;6.23;;;;;;;11.99;100.00;97881.41;6189337;28;20240;-39
2023/06/26 04:17:45;;;;;;;5.90;5.33;;;;;;;12.04;100.00;97881.47;6204331;28;20605;-39
2023/06/26 04:21:08;;;;;;;6.60;5.73;;;;;;;12.12;100.00;97886.41;6205910;28;20710;-39
2023/06/26 04:24:10;;;;;;;6.40;5.70;;;;;;;12.16;100.00;97877.88;6203000;28;20232;-39
2023/06/26 04:27:16;;;;;;;7.37;5.93;;;;;;;12.10;100.00;97866.34;6192985;28;20304;-39
2023/06/26 04:30:18;;;;;;;6.53;5.83;;;;;;;12.21;100.00;97883.28;6206084;28;20227;-39
2023/06/26 04:33:20;;;;;;;6.33;5.73;;;;;;;12.26;100.00;97884.16;6205777;28;20236;-40
2023/06/26 04:36:22;;;;;;;6.70;5.47;;;;;;;12.32;100.00;97877.84;6206391;28;20232;-39
2023/06/26 04:39:24;;;;;;;7.40;6.20;;;;;;;12.37;100.00;97880.59;6206217;28;20224;-39
2023/06/26 04:42:26;;;;;;;6.57;5.50;;;;;;;12.27;100.00;97859.09;6206363;28;20224;-39
2023/06/26 04:45:28;;;;;;;6.80;5.67;;;;;;;12.43;100.00;97881.47;6206116;28;20239;-39
2023/06/26 04:48:31;;;;;;;8.37;6.60;;;;;;;12.26;100.00;97843.28;6205903;28;20726;-39
2023/06/26 04:51:33;;;;;;;11.03;6.73;;;;;;;12.50;100.00;97878.59;6205872;28;20228;-39
2023/06/26 04:54:35;;;;;;;5.87;5.17;;;;;;;12.46;100.00;97878.28;6206009;28;20232;-39
2023/06/26 04:57:37;;;;;;;7.83;6.97;;;;;;;12.59;100.00;97893.94;6209656;28;20240;-39
2023/06/26 05:00:42;;;;;;;7.97;7.17;;;;;;;12.63;100.00;97895.06;6208882;28;20240;-39
2023/06/26 05:03:45;;;;;;;7.33;6.63;;;;;;;12.69;100.00;97895.94;6204783;28;20236;-39
2023/06/26 05:06:47;;;;;;;7.20;6.50;;;;;;;12.63;100.00;97873.69;6206151;28;20352;-39
2023/06/26 05:09:49;;;;;;;9.77;7.53;;;;;;;12.80;100.00;97892.31;6205209;28;20605;-39
2023/06/26 05:12:51;;;;;;;8.47;7.60;;;;;;;12.73;100.00;97856.94;6186419;28;20738;-39
2023/06/26 05:15:53;;;;;;;10.30;8.00;;;;;;;12.98;100.00;97887.69;6179975;28;20742;-39
2023/06/26 05:18:55;;;;;;;9.03;8.13;;;;;;;13.08;100.00;97883.25;6180771;28;20229;-39
2023/06/26 05:22:01;;;;;;;9.50;8.00;;;;;;;13.15;100.00;97886.53;6181345;28;20244;-39
2023/06/26 05:25:04;;;;;;;8.80;7.90;;;;;;;13.24;100.00;97880.75;6181031;28;20236;-39
2023/06/26 05:28:09;;;;;;;8.63;7.63;;;;;;;13.30;100.00;97879.72;6177298;28;20225;-39
2023/06/26 05:31:12;;;;;;;9.23;8.30;;;;;;;13.39;100.00;97888.91;6180536;28;20703;-39
2023/06/26 05:34:15;;;;;;;11.13;9.00;;;;;;;13.50;100.00;97881.78;6180977;28;20236;-39
2023/06/26 05:37:21;;;;;;;9.67;8.47;;;;;;;13.44;100.00;97864.84;6181016;28;20240;-39
2023/06/26 05:40:24;;;;;;;11.47;9.27;;;;;;;13.60;100.00;97857.78;6178814;28;20697;-39
2023/06/26 05:43:26;;;;;;;10.37;8.80;;;;;;;13.85;100.00;97875.88;6180018;28;20239;-39
2023/06/26 05:46:30;;;;;;;9.30;8.30;;;;;;;13.94;100.00;97879.69;6179801;28;20229;-39
2023/06/26 05:49:33;;;;;;;10.00;8.43;;;;;;;14.09;100.00;97893.19;6180165;28;20236;-39
2023/06/26 05:52:36;;;;;;;9.47;8.47;;;;;;;14.21;100.00;97892.97;6181391;28;20726;-39
2023/06/26 05:55:41;;;;;;;9.53;8.53;;;;;;;14.34;100.00;97884.47;6181308;28;20240;-39
2023/06/26 05:58:44;;;;;;;10.10;9.10;;;;;;;14.46;100.00;97879.69;6180356;28;20316;-39
2023/06/26 06:01:46;;;;;;;8.97;8.07;;;;;;;14.62;100.00;97877.09;6193317;28;20817;-39
2023/06/26 06:04:48;;;;;;;10.37;9.37;;;;;;;14.76;100.00;97877.41;6180597;28;20260;-39
2023/06/26 06:07:50;;;;;;;9.97;8.97;;;;;;;14.79;100.00;97858.94;6179674;28;20233;-39
2023/06/26 06:10:53;;;;;;;9.70;8.80;;;;;;;15.04;100.00;97868.91;6179421;28;20707;-40
2023/06/26 06:13:55;;;;;;;10.10;9.10;;;;;;;15.24;100.00;97873.50;6180092;28;20284;-39
2023/06/26 06:16:57;;;;;;;9.40;8.50;;;;;;;15.43;100.00;97873.78;6177700;28;20881;-40
2023/06/26 06:19:59;;;;;;;9.33;8.33;;;;;;;15.60;100.00;97876.19;6179651;28;20738;-39
2023/06/26 06:23:02;;;;;;;8.43;7.63;;;;;;;15.81;100.00;97877.00;6176614;28;20721;-40
2023/06/26 06:26:04;;;;;;;10.07;8.30;;;;;;;16.03;100.00;97880.19;6179860;28;20232;-41
2023/06/26 06:29:06;;;;;;;8.30;7.13;;;;;;;16.24;100.00;97884.44;6179646;28;20225;-40
2023/06/26 06:32:08;;;;;;;7.57;6.87;;;;;;;16.49;100.00;97885.44;6179448;28;20241;-40
2023/06/26 06:35:10;;;;;;;8.03;6.50;;;;;;;16.74;99.25;97876.47;6179247;28;20229;-41
2023/06/26 06:38:12;;;;;;;8.13;5.77;;;;;;;16.97;96.33;97885.78;6179693;28;20221;-40
2023/06/26 06:41:16;;;;;;;6.90;5.53;;;;;;;17.19;95.15;97882.69;6161438;28;20304;-40
2023/06/26 06:44:18;;;;;;;6.10;5.27;;;;;;;17.38;93.25;97883.63;6179222;28;20251;-39
2023/06/26 06:47:21;;;;;;;5.60;5.07;;;;;;;17.56;91.04;97884.84;6176102;28;20232;-40
2023/06/26 06:50:23;;;;;;;6.27;5.30;;;;;;;17.73;90.06;97879.06;6179140;28;20217;-39
2023/06/26 06:53:28;;;;;;;5.70;5.20;;;;;;;17.93;88.17;97870.81;6177540;28;20236;-40
2023/06/26 06:57:37;;;;;;;5.20;4.77;;;;;;;18.18;86.42;97875.16;6171174;28;20251;-40
2023/06/26 07:01:20;;;;;;;6.37;5.73;;;;;;;18.35;84.42;97865.78;6206209;28;20242;-40
2023/06/26 07:04:22;;;;;;;6.40;4.83;;;;;;;18.56;83.79;97876.03;6223960;28;20665;-40
2023/06/26 07:07:29;;;;;;;5.93;5.30;;;;;;;18.71;81.82;97876.97;6223383;28;20235;-40
2023/06/26 07:10:31;;;;;;;5.30;4.80;;;;;;;18.86;81.02;97873.25;6223904;28;20286;-40
2023/06/26 07:13:33;;;;;;;5.83;5.03;;;;;;;18.95;79.71;97883.13;6249558;28;20237;-40
2023/06/26 07:16:35;;;;;;;5.97;5.27;;;;;;;19.04;79.23;97877.88;6246614;28;20549;-40
2023/06/26 07:19:37;;;;;;;5.07;4.10;;;;;;;19.14;77.50;97877.72;6247242;28;20223;-40
2023/06/26 07:22:40;;;;;;;5.00;4.50;;;;;;;19.23;76.91;97883.28;6248005;28;20868;-40
2023/06/26 07:25:42;;;;;;;6.37;4.80;;;;;;;19.35;74.25;97878.22;6247205;28;20736;-40
2023/06/26 07:28:44;;;;;;;4.20;3.83;;;;;;;19.34;74.08;97855.81;6252656;28;20242;-40
2023/06/26 07:31:47;;;;;;;4.90;4.43;;;;;;;19.54;73.17;97880.91;6252819;28;20227;-40
2023/06/26 07:34:50;;;;;;;6.73;4.27;;;;;;;19.65;73.73;97879.66;6253128;28;20238;-40
2023/06/26 07:37:52;;;;;;;6.30;4.83;;;;;;;19.75;71.65;97874.13;6252899;28;20235;-40
2023/06/26 07:40:54;;;;;;;4.73;4.23;;;;;;;19.98;68.63;97879.66;6252711;28;20238;-40
2023/06/26 07:43:57;;;;;;;4.93;4.43;;;;;;;20.11;68.44;97884.28;6253102;28;20716;-40
2023/06/26 07:46:59;;;;;;;5.70;5.20;;;;;;;20.20;67.48;97881.72;6252799;28;20724;-40
2023/06/26 07:50:02;;;;;;;4.70;4.30;;;;;;;20.42;66.03;97884.50;6253301;28;20234;-40
2023/06/26 07:53:05;;;;;;;5.17;4.57;;;;;;;20.55;64.72;97874.81;6243965;28;20242;-40
2023/06/26 07:56:07;;;;;;;7.37;5.07;;;;;;;20.70;64.03;97890.75;6253991;28;20717;-40
2023/06/26 07:59:10;;;;;;;5.40;4.90;;;;;;;20.80;62.88;97887.03;6254491;28;20234;-41
2023/06/26 08:02:12;;;;;;;5.77;5.27;;;;;;;20.88;64.56;97891.72;6237852;28;20231;-40
2023/06/26 08:05:14;;;;;;;5.93;5.33;;;;;;;20.97;62.37;97884.47;6252106;28;20267;-41
2023/06/26 08:08:16;;;;;;;5.60;5.10;;;;;;;21.23;58.96;97878.47;6251032;28;20341;-41
2023/06/26 08:11:19;;;;;;;6.97;5.20;;;;;;;21.33;62.69;97887.25;6251307;28;20649;-41
2023/06/26 08:14:21;;;;;;;7.33;5.53;;;;;;;21.50;59.12;97883.84;6251222;28;20357;-40
2023/06/26 08:17:27;;;;;;;6.40;5.37;;;;;;;21.57;61.00;97886.13;6253002;28;20716;-40
2023/06/26 08:20:35;;;;;;;7.73;5.10;;;;;;;21.60;62.33;97871.94;6250237;28;20263;-41
2023/06/26 08:23:38;;;;;;;6.87;5.43;;;;;;;21.65;64.21;97877.25;6250282;28;20227;-41
2023/06/26 08:26:40;;;;;;;5.50;5.00;;;;;;;21.70;65.24;97879.03;6250453;28;20223;-40
2023/06/26 08:29:42;;;;;;;6.87;5.70;;;;;;;21.74;60.74;97869.19;6247218;28;20241;-39
2023/06/26 08:32:44;;;;;;;5.70;5.17;;;;;;;21.96;58.54;97879.97;6251513;28;20767;-39
2023/06/26 08:35:47;;;;;;;6.40;5.77;;;;;;;22.15;57.35;97875.16;6250262;28;20708;-39
2023/06/26 08:38:49;;;;;;;8.13;6.03;;;;;;;22.20;58.80;97874.22;6246508;28;20235;-39
2023/06/26 08:41:51;;;;;;;6.43;5.47;;;;;;;22.24;57.59;97880.63;6233799;28;20238;-40
2023/06/26 08:44:53;;;;;;;5.70;4.87;;;;;;;22.38;56.40;97870.47;6251602;28;20238;-39
2023/06/26 08:48:08;;;;;;;5.93;5.30;;;;;;;22.47;59.50;97875.94;6250730;28;20740;-40
2023/06/26 08:51:13;;;;;;;6.63;6.03;;;;;;;22.51;57.02;97871.50;6248782;28;20758;-40
2023/06/26 08:54:17;;;;;;;7.57;5.60;;;;;;;22.55;58.40;97867.00;6242450;28;20713;-39
2023/06/26 08:57:20;;;;;;;8.00;6.03;;;;;;;22.79;54.82;97863.88;6169681;28;20219;-44
2023/06/26 09:00:23;;;;;;;7.37;5.50;;;;;;;22.93;54.17;97858.34;6202284;28;20338;-41
2023/06/26 09:03:26;;;;;;;5.83;5.33;;;;;;;23.04;54.19;97862.34;6210462;28;20600;-39
2023/06/26 09:06:28;;;;;;;6.40;5.80;;;;;;;22.95;53.72;97852.56;6204610;28;20228;-39
2023/06/26 09:09:30;;;;;;;6.20;5.60;;;;;;;22.89;59.73;97860.09;6187280;28;20239;-40
2023/06/26 09:12:33;;;;;;;5.50;4.97;;;;;;;22.83;58.78;97855.91;6187299;28;20248;-40
2023/06/26 09:15:42;;;;;;;5.72;5.22;;;;;;;22.82;58.05;97841.53;6175377;28;20241;-40
2023/06/26 09:18:47;;;;;;;6.82;5.00;;;;;;;23.04;56.13;97848.75;6180190;28;20725;-41
2023/06/26 09:21:51;;;;;;;5.63;5.07;;;;;;;23.10;55.02;97849.38;6180563;28;20240;-40
2023/06/26 09:24:53;;;;;;;4.78;4.38;;;;;;;23.23;56.58;97853.06;6180380;28;20606;-40
2023/06/26 09:27:56;;;;;;;8.10;5.30;;;;;;;23.10;53.72;97831.19;6177916;28;20643;-49
2023/06/26 09:31:08;;;;;;;5.28;4.78;;;;;;;23.22;59.20;97846.06;6180167;28;20233;-51
2023/06/26 09:34:13;;;;;;;5.50;5.00;;;;;;;23.30;54.04;97845.22;6187690;28;20710;-47
2023/06/26 09:37:15;;;;;;;6.25;5.35;;;;;;;23.48;52.54;97854.97;6180268;28;20232;-50
2023/06/26 09:40:17;;;;;;;7.63;5.60;;;;;;;23.60;54.23;97852.41;6179118;28;20232;-47
2023/06/26 09:43:20;;;;;;;6.03;5.30;;;;;;;23.51;54.97;97832.59;6179296;28;20590;-49
2023/06/26 09:46:30;;;;;;;6.03;5.30;;;;;;;23.60;50.21;97849.69;6178382;28;20221;-49
2023/06/26 09:49:33;;;;;;;5.25;4.75;;;;;;;23.78;47.39;97846.97;6178611;28;20234;-48
2023/06/26 09:52:35;;;;;;;5.18;4.68;;;;;;;23.78;47.74;97841.50;6177863;28;20241;-50
2023/06/26 09:55:38;;;;;;;5.10;4.60;;;;;;;23.79;46.14;97822.16;6178680;28;20677;-50
2023/06/26 09:58:42;;;;;;;5.35;4.85;;;;;;;23.80;47.40;97840.09;6178277;28;20236;-49
2023/06/26 10:01:46;;;;;;;7.57;4.93;;;;;;;23.79;52.37;97835.78;6178665;28;20229;-48
2023/06/26 10:04:49;;;;;;;7.25;4.80;;;;;;;23.79;51.21;97826.78;6178214;28;20236;-52
2023/06/26 10:07:53;;;;;;;5.80;4.38;;;;;;;23.99;53.78;97836.16;6179169;28;20233;-49
2023/06/26 10:10:57;;;;;;;5.18;4.40;;;;;;;23.91;53.39;97824.19;6178704;28;20659;-50
2023/06/26 10:14:00;;;;;;;5.53;4.60;;;;;;;23.75;48.85;97779.63;6170476;28;20372;-50
2023/06/26 10:17:22;;;;;;;4.97;4.47;;;;;;;24.12;49.27;97835.16;6176578;28;20225;-48
2023/06/26 10:20:26;;;;;;;5.78;4.75;;;;;;;24.33;47.80;97827.06;6180330;28;20230;-47
2023/06/26 10:23:31;;;;;;;7.63;4.32;;;;;;;24.27;52.57;97828.38;6180952;28;20229;-50
2023/06/26 10:26:42;;;;;;;4.70;4.30;;;;;;;24.30;46.84;97828.53;6178811;28;20233;-49
2023/06/26 10:29:57;;;;;;;7.18;4.18;;;;;;;24.31;47.98;97824.66;6176245;28;20742;-50
2023/06/26 10:33:00;;;;;;;7.45;4.35;;;;;;;24.54;47.65;97824.44;6176212;28;20240;-50
2023/06/26 10:36:19;;;;;;;4.53;4.13;;;;;;;24.66;45.45;97824.50;6177694;28;20230;-51
2023/06/26 10:39:22;;;;;;;4.88;4.40;;;;;;;24.70;44.88;97830.91;6177055;28;20324;-51
2023/06/26 10:42:38;;;;;;;5.13;4.63;;;;;;;24.57;45.55;97818.31;6177831;28;20225;-48
2023/06/26 10:45:54;;;;;;;4.82;4.18;;;;;;;24.43;46.24;97810.38;6176178;28;20241;-50
2023/06/26 10:49:00;;;;;;;4.90;4.40;;;;;;;24.60;46.78;97814.94;6179696;28;20246;-48
2023/06/26 10:52:03;;;;;;;4.93;4.05;;;;;;;24.67;42.59;97809.75;6178560;28;20237;-51
2023/06/26 10:55:08;;;;;;;3.80;3.50;;;;;;;24.59;45.47;97807.91;6161824;28;20244;-51
2023/06/26 10:58:30;;;;;;;5.50;3.85;;;;;;;24.56;48.35;97803.09;6161272;28;20254;-47
2023/06/26 11:01:40;;;;;;;4.10;3.70;;;;;;;24.67;47.97;97793.41;6174953;28;20256;-51
2023/06/26 11:04:51;;;;;;;4.45;3.80;;;;;;;25.04;42.72;97799.06;6175830;28;20606;-48
2023/06/26 11:08:13;;;;;;;4.00;3.65;;;;;;;24.88;45.79;97799.69;6175814;28;20237;-47
2023/06/26 11:11:16;;;;;;;4.15;3.75;;;;;;;24.92;43.15;97803.31;6176447;28;20234;-50
2023/06/26 11:14:19;;;;;;;4.68;4.28;;;;;;;24.87;46.05;97797.28;6160745;28;20233;-47
2023/06/26 11:17:24;;;;;;;3.95;3.65;;;;;;;24.85;48.55;97797.63;6174910;28;20611;-51
2023/06/26 11:20:27;;;;;;;4.35;3.92;;;;;;;24.81;48.43;97790.44;6176477;28;20319;-50
2023/06/26 11:23:32;;;;;;;4.63;4.13;;;;;;;24.86;45.51;97788.28;6177442;28;20750;-47
2023/06/26 11:26:41;;;;;;;4.25;3.90;;;;;;;24.95;45.79;97786.31;6177827;28;20311;-50
2023/06/26 11:29:48;;;;;;;4.82;4.20;;;;;;;25.06;44.79;97786.69;6177253;28;20315;-50
2023/06/26 11:32:50;;;;;;;4.55;4.25;;;;;;;25.06;43.81;97769.53;6176167;28;20318;-50
2023/06/26 11:35:53;;;;;;;4.45;4.05;;;;;;;25.18;45.90;97786.78;6159580;28;20244;-49
2023/06/26 11:39:00;;;;;;;6.20;4.28;;;;;;;25.15;46.33;97786.66;6178190;28;20726;-50
2023/06/26 11:42:02;;;;;;;5.05;3.97;;;;;;;25.29;45.83;97780.91;6176544;28;20237;-50
2023/06/26 11:45:05;;;;;;;4.18;3.78;;;;;;;25.53;43.21;97782.94;6177831;28;20228;-50
2023/06/26 11:48:07;;;;;;;5.30;4.30;;;;;;;25.36;42.65;97764.78;6176387;28;20228;-49
2023/06/26 11:51:18;;;;;;;3.80;3.50;;;;;;;25.41;45.49;97772.75;6177170;28;20591;-51
2023/06/26 11:54:26;;;;;;;5.68;4.07;;;;;;;25.57;42.74;97767.50;6161376;28;20225;-49
2023/06/26 11:57:30;;;;;;;4.80;4.35;;;;;;;25.56;41.32;97763.13;6177298;28;20236;-48
2023/06/26 12:00:32;;;;;;;4.20;3.80;;;;;;;25.53;44.34;97759.19;6177774;28;20744;-49
2023/06/26 12:03:35;;;;;;;5.60;4.45;;;;;;;25.53;44.43;97758.38;6177119;28;20224;-50
2023/06/26 12:06:40;;;;;;;4.70;4.30;;;;;;;25.66;45.54;97760.78;6178111;28;20605;-49
2023/06/26 12:09:45;;;;;;;5.75;4.13;;;;;;;25.80;45.03;97760.47;6177907;28;20328;-49
2023/06/26 12:12:48;;;;;;;4.63;4.22;;;;;;;26.05;42.13;97757.78;6181068;28;20237;-50
2023/06/26 12:15:51;;;;;;;4.88;4.47;;;;;;;25.87;42.23;97752.56;6176443;28;20244;-48
2023/06/26 12:18:59;;;;;;;5.18;4.68;;;;;;;26.06;42.29;97752.00;6181302;28;20236;-40
2023/06/26 12:22:06;;;;;;;4.63;4.22;;;;;;;25.95;43.21;97746.16;6181602;28;20244;-41
2023/06/26 12:25:12;;;;;;;5.65;4.15;;;;;;;25.87;45.15;97725.25;6182354;28;20596;-40
2023/06/26 12:28:19;;;;;;;4.78;4.30;;;;;;;26.15;43.14;97752.66;6181098;28;20327;-41
2023/06/26 12:31:22;;;;;;;4.60;4.20;;;;;;;26.18;43.78;97749.25;6182704;28;20236;-41
2023/06/26 12:34:32;;;;;;;4.45;3.97;;;;;;;26.21;43.68;97743.09;6180991;28;20241;-42
2023/06/26 12:37:42;;;;;;;4.97;4.40;;;;;;;26.14;46.32;97739.34;6180889;28;21023;-42
2023/06/26 12:40:47;;;;;;;5.32;4.55;;;;;;;26.22;45.37;97741.97;6182322;28;20379;-42
2023/06/26 12:43:56;;;;;;;5.10;4.60;;;;;;;26.19;46.04;97737.16;6181125;28;20707;-41
2023/06/26 12:47:00;;;;;;;5.35;4.85;;;;;;;26.26;44.59;97742.09;6181345;28;20436;-42
2023/06/26 12:50:05;;;;;;;5.38;4.72;;;;;;;26.30;46.73;97736.72;6175503;28;20244;-44
2023/06/26 12:53:07;;;;;;;5.10;4.60;;;;;;;26.36;46.60;97732.63;6178289;28;20237;-41
2023/06/26 12:56:11;;;;;;;4.95;4.50;;;;;;;26.32;45.40;97743.44;6180537;28;20240;-45
2023/06/26 12:59:13;;;;;;;6.15;4.55;;;;;;;26.20;45.54;97729.78;6181130;28;20236;-49
2023/06/26 13:02:15;;;;;;;6.15;4.95;;;;;;;26.26;43.88;97731.16;6180134;28;20233;-51
2023/06/26 13:05:17;;;;;;;7.15;5.07;;;;;;;26.34;42.81;97732.94;6180948;28;20240;-50
2023/06/26 13:08:19;;;;;;;5.57;5.07;;;;;;;26.39;45.49;97731.91;6195953;28;20248;-50
2023/06/26 13:11:22;;;;;;;5.82;5.32;;;;;;;26.22;45.89;97727.50;6179789;28;20237;-50
2023/06/26 13:14:27;;;;;;;5.93;4.43;;;;;;;26.05;44.67;97712.16;6178369;28;20906;-49
2023/06/26 13:17:29;;;;;;;6.05;5.10;;;;;;;26.04;44.12;97721.47;6178707;28;20380;-48
2023/06/26 13:20:31;;;;;;;6.07;5.53;;;;;;;26.06;46.16;97718.41;6179024;28;20237;-50
2023/06/26 13:23:34;;;;;;;5.32;4.82;;;;;;;26.05;47.91;97723.06;6179122;28;20441;-49
2023/06/26 13:26:36;;;;;;;6.00;5.25;;;;;;;26.01;49.20;97716.72;6180974;28;20967;-50
2023/06/26 13:29:39;;;;;;;6.70;5.50;;;;;;;26.02;47.36;97712.84;6181054;28;20789;-48
2023/06/26 13:32:42;;;;;;;8.00;5.55;;;;;;;25.93;46.04;97691.13;6180304;28;20308;-49
2023/06/26 13:35:44;;;;;;;5.60;5.18;;;;;;;26.14;43.90;97703.84;6180823;28;20496;-50
2023/06/26 13:38:48;;;;;;;5.60;5.10;;;;;;;26.27;46.18;97704.63;6165065;28;20229;-49
2023/06/26 13:41:50;;;;;;;5.63;5.13;;;;;;;26.16;48.09;97698.84;6180179;28;20240;-48
2023/06/26 13:44:52;;;;;;;5.68;5.18;;;;;;;26.13;48.14;97694.06;6179759;28;20239;-51
2023/06/26 13:48:05;;;;;;;5.40;4.90;;;;;;;26.11;49.83;97688.97;6176906;28;20288;-48
2023/06/26 13:51:08;;;;;;;5.82;5.22;;;;;;;26.10;46.38;97692.00;6178596;28;20511;-52
2023/06/26 13:54:11;;;;;;;5.60;5.10;;;;;;;26.28;41.72;97687.09;6162387;28;20223;-50
2023/06/26 13:57:13;;;;;;;5.75;5.18;;;;;;;26.28;46.21;97682.44;6180180;28;20237;-50
2023/06/26 14:00:19;;;;;;;5.68;5.18;;;;;;;26.47;42.76;97681.84;6179212;28;21814;-49
2023/06/26 14:03:22;;;;;;;5.65;5.15;;;;;;;26.48;43.59;97683.44;6181990;28;20257;-52
2023/06/26 14:06:25;;;;;;;5.88;5.38;;;;;;;26.60;42.32;97677.97;6178972;28;20259;-48
2023/06/26 14:09:28;;;;;;;5.70;5.20;;;;;;;26.55;45.48;97677.38;6178312;28;20229;-52
2023/06/26 14:12:30;;;;;;;6.03;4.95;;;;;;;26.51;47.16;97669.09;6179729;28;20615;-49
2023/06/26 14:15:32;;;;;;;5.75;4.97;;;;;;;26.29;50.25;97664.09;6193001;28;20628;-52
2023/06/26 14:18:35;;;;;;;5.93;5.43;;;;;;;26.29;51.15;97666.84;6178919;28;20676;-50
2023/06/26 14:21:37;;;;;;;6.15;5.55;;;;;;;26.18;53.60;97661.84;6179090;28;20233;-49
2023/06/26 14:24:39;;;;;;;5.80;5.30;;;;;;;26.13;52.32;97661.31;6178705;28;20240;-50